Pagina principale
METAR-TAF:

METAR-TAF

Aeroporti :

Chulitna, Alaska, Stati Uniti

latitudine: 62-53N, longitudine: 149-50W, altezza: 381 m

Osservazione

Il bollettino è stato emesso 12 ore e 9 minuti fa, alle 02:54 UTC
Vento 5 kt da sud
Temperature 18°C
Umidità 49%
Pressione 1016 hPa
Visibilità: 32.2 km
Nubi sparse ad un'altezza di 3000 ft
Nuvoloso ad un'altezza di 10000 ft

METAR: PAEC 190254Z 17005KT 20SM SCT030 BKN100 18/07 A3001 RMK CU E NOSPECI LAST

Ora: 07:03 (15:03 UTC)


TAF: mancante

Osservazioni e previsioni meteorologiche di più di 4000 aeroporti (messaggi METAR e TAF).

Le stazioni disponibili sono rappresentate dai dischi gialli e rossi sulla carta.

Puntare il mouse per vedere il nome della stazione.

Clicca sopra per visualizzare le osservazioni e previsioni meteorologiche.

Per cambiare la mappa : fare clic sui pulsanti verdi con una croce nera per ingrandire, il pulsante verde con un trattino per diminuire, o sulla freccia verde per le mappe adiacenti.


METAR-TAF: